sensor_id;sensor_type;location;lat;lon;timestamp;temperature;humidity
5775;DHT22;2913;51.120;6.772;2023-07-13T00:01:28;18.60;92.10
5775;DHT22;2913;51.120;6.772;2023-07-13T00:03:59;18.50;92.60
5775;DHT22;2913;51.120;6.772;2023-07-13T00:06:27;18.50;93.20
5775;DHT22;2913;51.120;6.772;2023-07-13T00:08:59;18.40;94.10
5775;DHT22;2913;51.120;6.772;2023-07-13T00:11:24;18.40;95.10
5775;DHT22;2913;51.120;6.772;2023-07-13T00:13:51;18.30;95.50
5775;DHT22;2913;51.120;6.772;2023-07-13T00:16:16;18.20;97.70
5775;DHT22;2913;51.120;6.772;2023-07-13T00:18:44;18.20;98.10
5775;DHT22;2913;51.120;6.772;2023-07-13T00:21:12;18.30;98.70
5775;DHT22;2913;51.120;6.772;2023-07-13T00:23:39;18.10;99.20
5775;DHT22;2913;51.120;6.772;2023-07-13T00:26:10;18.10;99.90
5775;DHT22;2913;51.120;6.772;2023-07-13T00:28:39;18.00;99.90
5775;DHT22;2913;51.120;6.772;2023-07-13T00:31:05;17.90;99.90
5775;DHT22;2913;51.120;6.772;2023-07-13T00:33:31;17.90;99.90
5775;DHT22;2913;51.120;6.772;2023-07-13T00:35:57;17.90;99.90
5775;DHT22;2913;51.120;6.772;2023-07-13T00:38:25;17.90;99.90
5775;DHT22;2913;51.120;6.772;2023-07-13T00:40:53;17.90;99.90
5775;DHT22;2913;51.120;6.772;2023-07-13T00:43:23;17.80;99.90
5775;DHT22;2913;51.120;6.772;2023-07-13T00:48:29;17.80;99.90
5775;DHT22;2913;51.120;6.772;2023-07-13T00:50:57;17.90;99.90
5775;DHT22;2913;51.120;6.772;2023-07-13T00:53:25;17.80;99.90
5775;DHT22;2913;51.120;6.772;2023-07-13T00:55:53;17.70;99.90
5775;DHT22;2913;51.120;6.772;2023-07-13T00:58:20;17.60;99.90
5775;DHT22;2913;51.120;6.772;2023-07-13T01:00:49;17.60;99.90
5775;DHT22;2913;51.120;6.772;2023-07-13T01:03:16;17.60;99.90
5775;DHT22;2913;51.120;6.772;2023-07-13T01:05:42;17.60;99.90
5775;DHT22;2913;51.120;6.772;2023-07-13T01:08:10;17.60;99.90
5775;DHT22;2913;51.120;6.772;2023-07-13T01:10:38;17.60;99.90
5775;DHT22;2913;51.120;6.772;2023-07-13T01:13:08;17.60;99.90
5775;DHT22;2913;51.120;6.772;2023-07-13T01:15:43;17.60;99.90
5775;DHT22;2913;51.120;6.772;2023-07-13T01:18:28;17.60;99.90
5775;DHT22;2913;51.120;6.772;2023-07-13T01:23:26;17.50;99.90
5775;DHT22;2913;51.120;6.772;2023-07-13T01:25:53;17.50;99.90
5775;DHT22;2913;51.120;6.772;2023-07-13T01:28:19;17.50;99.90
5775;DHT22;2913;51.120;6.772;2023-07-13T01:30:46;17.50;99.90
5775;DHT22;2913;51.120;6.772;2023-07-13T01:33:17;17.50;99.90
5775;DHT22;2913;51.120;6.772;2023-07-13T01:35:44;17.50;99.90
5775;DHT22;2913;51.120;6.772;2023-07-13T01:38:15;17.40;99.90
5775;DHT22;2913;51.120;6.772;2023-07-13T01:40:41;17.40;99.90
5775;DHT22;2913;51.120;6.772;2023-07-13T01:43:07;17.40;99.90
5775;DHT22;2913;51.120;6.772;2023-07-13T01:45:35;17.40;99.90
5775;DHT22;2913;51.120;6.772;2023-07-13T01:48:00;17.30;99.90
5775;DHT22;2913;51.120;6.772;2023-07-13T01:50:26;17.30;99.90
5775;DHT22;2913;51.120;6.772;2023-07-13T01:52:52;17.30;99.90
5775;DHT22;2913;51.120;6.772;2023-07-13T01:55:18;17.30;99.90
5775;DHT22;2913;51.120;6.772;2023-07-13T01:57:44;17.40;99.90
5775;DHT22;2913;51.120;6.772;2023-07-13T02:00:13;17.30;99.90
5775;DHT22;2913;51.120;6.772;2023-07-13T02:02:38;17.30;99.90
5775;DHT22;2913;51.120;6.772;2023-07-13T02:05:07;17.20;99.90
5775;DHT22;2913;51.120;6.772;2023-07-13T02:07:32;17.10;99.90
5775;DHT22;2913;51.120;6.772;2023-07-13T02:09:58;17.10;99.90
5775;DHT22;2913;51.120;6.772;2023-07-13T02:12:24;17.10;99.90
5775;DHT22;2913;51.120;6.772;2023-07-13T02:14:52;17.10;99.90
5775;DHT22;2913;51.120;6.772;2023-07-13T02:17:22;17.00;99.90
5775;DHT22;2913;51.120;6.772;2023-07-13T02:19:48;17.00;99.90
5775;DHT22;2913;51.120;6.772;2023-07-13T02:22:14;17.00;99.90
5775;DHT22;2913;51.120;6.772;2023-07-13T02:24:41;17.00;99.90
5775;DHT22;2913;51.120;6.772;2023-07-13T02:27:07;16.90;99.90
5775;DHT22;2913;51.120;6.772;2023-07-13T02:29:35;17.00;99.90
5775;DHT22;2913;51.120;6.772;2023-07-13T02:32:03;16.90;99.90
5775;DHT22;2913;51.120;6.772;2023-07-13T02:34:29;16.90;99.90
5775;DHT22;2913;51.120;6.772;2023-07-13T02:36:54;16.90;99.90
5775;DHT22;2913;51.120;6.772;2023-07-13T02:39:20;16.90;99.90
5775;DHT22;2913;51.120;6.772;2023-07-13T02:41:46;16.90;99.90
5775;DHT22;2913;51.120;6.772;2023-07-13T02:44:14;16.90;99.90
5775;DHT22;2913;51.120;6.772;2023-07-13T02:46:40;16.90;99.90
5775;DHT22;2913;51.120;6.772;2023-07-13T02:49:06;16.90;99.90
5775;DHT22;2913;51.120;6.772;2023-07-13T02:51:31;16.90;99.90
5775;DHT22;2913;51.120;6.772;2023-07-13T02:54:02;16.90;99.90
5775;DHT22;2913;51.120;6.772;2023-07-13T02:56:29;16.90;99.90
5775;DHT22;2913;51.120;6.772;2023-07-13T02:58:58;16.80;99.90
5775;DHT22;2913;51.120;6.772;2023-07-13T03:01:24;16.80;99.90
5775;DHT22;2913;51.120;6.772;2023-07-13T03:03:50;16.90;99.90
5775;DHT22;2913;51.120;6.772;2023-07-13T03:06:22;16.80;99.90
5775;DHT22;2913;51.120;6.772;2023-07-13T03:08:48;16.80;99.90
5775;DHT22;2913;51.120;6.772;2023-07-13T03:11:18;16.80;99.90
5775;DHT22;2913;51.120;6.772;2023-07-13T03:13:44;16.80;99.90
5775;DHT22;2913;51.120;6.772;2023-07-13T03:16:12;16.70;99.90
5775;DHT22;2913;51.120;6.772;2023-07-13T03:18:41;16.70;99.90
5775;DHT22;2913;51.120;6.772;2023-07-13T03:21:09;16.70;99.90
5775;DHT22;2913;51.120;6.772;2023-07-13T03:23:38;16.70;99.90
5775;DHT22;2913;51.120;6.772;2023-07-13T03:26:16;16.70;99.90
5775;DHT22;2913;51.120;6.772;2023-07-13T03:28:45;16.60;99.90
5775;DHT22;2913;51.120;6.772;2023-07-13T03:31:14;16.60;99.90
5775;DHT22;2913;51.120;6.772;2023-07-13T03:33:40;16.60;99.90
5775;DHT22;2913;51.120;6.772;2023-07-13T03:36:07;16.60;99.90
5775;DHT22;2913;51.120;6.772;2023-07-13T03:38:34;16.60;99.90
5775;DHT22;2913;51.120;6.772;2023-07-13T03:41:00;16.60;99.90
5775;DHT22;2913;51.120;6.772;2023-07-13T03:43:26;16.60;99.90
5775;DHT22;2913;51.120;6.772;2023-07-13T03:45:52;16.60;99.90
5775;DHT22;2913;51.120;6.772;2023-07-13T03:48:17;16.60;99.90
5775;DHT22;2913;51.120;6.772;2023-07-13T03:50:43;16.60;99.90
5775;DHT22;2913;51.120;6.772;2023-07-13T03:53:11;16.50;99.90
5775;DHT22;2913;51.120;6.772;2023-07-13T03:55:36;16.50;99.90
5775;DHT22;2913;51.120;6.772;2023-07-13T03:58:25;16.50;99.90
5775;DHT22;2913;51.120;6.772;2023-07-13T04:00:54;16.40;99.90
5775;DHT22;2913;51.120;6.772;2023-07-13T04:03:19;16.50;99.90
5775;DHT22;2913;51.120;6.772;2023-07-13T04:05:45;16.50;99.90
5775;DHT22;2913;51.120;6.772;2023-07-13T04:08:11;16.50;99.90
5775;DHT22;2913;51.120;6.772;2023-07-13T04:10:37;16.60;99.90
5775;DHT22;2913;51.120;6.772;2023-07-13T04:13:04;16.60;99.90
5775;DHT22;2913;51.120;6.772;2023-07-13T04:15:30;16.60;99.90
5775;DHT22;2913;51.120;6.772;2023-07-13T04:17:58;17.00;99.90
5775;DHT22;2913;51.120;6.772;2023-07-13T04:20:25;17.40;99.90
5775;DHT22;2913;51.120;6.772;2023-07-13T04:22:51;17.80;99.90
5775;DHT22;2913;51.120;6.772;2023-07-13T04:25:16;18.20;99.90
5775;DHT22;2913;51.120;6.772;2023-07-13T04:27:42;18.50;99.90
5775;DHT22;2913;51.120;6.772;2023-07-13T04:30:08;18.60;99.90
5775;DHT22;2913;51.120;6.772;2023-07-13T04:32:34;19.40;99.90
5775;DHT22;2913;51.120;6.772;2023-07-13T04:35:02;19.50;99.90
5775;DHT22;2913;51.120;6.772;2023-07-13T04:37:27;20.00;99.90
5775;DHT22;2913;51.120;6.772;2023-07-13T04:39:54;20.30;99.90
5775;DHT22;2913;51.120;6.772;2023-07-13T04:42:19;21.10;99.90
5775;DHT22;2913;51.120;6.772;2023-07-13T04:44:49;21.00;99.20
5775;DHT22;2913;51.120;6.772;2023-07-13T04:47:15;21.40;98.00
5775;DHT22;2913;51.120;6.772;2023-07-13T04:49:44;21.60;96.30
5775;DHT22;2913;51.120;6.772;2023-07-13T04:52:14;21.90;95.40
5775;DHT22;2913;51.120;6.772;2023-07-13T04:54:39;21.90;94.30
5775;DHT22;2913;51.120;6.772;2023-07-13T04:57:08;21.90;94.30
5775;DHT22;2913;51.120;6.772;2023-07-13T04:59:34;22.30;93.70
5775;DHT22;2913;51.120;6.772;2023-07-13T05:02:02;22.70;93.30
5775;DHT22;2913;51.120;6.772;2023-07-13T05:04:28;23.10;91.90
5775;DHT22;2913;51.120;6.772;2023-07-13T05:06:54;23.30;91.50
5775;DHT22;2913;51.120;6.772;2023-07-13T05:09:22;23.40;90.70
5775;DHT22;2913;51.120;6.772;2023-07-13T05:11:47;23.60;90.30
5775;DHT22;2913;51.120;6.772;2023-07-13T05:14:15;23.90;89.90
5775;DHT22;2913;51.120;6.772;2023-07-13T05:16:42;24.20;89.40
5775;DHT22;2913;51.120;6.772;2023-07-13T05:19:10;24.30;87.30
5775;DHT22;2913;51.120;6.772;2023-07-13T05:21:38;24.50;86.80
5775;DHT22;2913;51.120;6.772;2023-07-13T05:24:04;24.80;85.70
5775;DHT22;2913;51.120;6.772;2023-07-13T05:26:32;25.10;85.60
5775;DHT22;2913;51.120;6.772;2023-07-13T05:31:24;25.80;82.20
5775;DHT22;2913;51.120;6.772;2023-07-13T05:33:49;25.80;82.00
5775;DHT22;2913;51.120;6.772;2023-07-13T05:36:15;25.70;81.20
5775;DHT22;2913;51.120;6.772;2023-07-13T05:38:40;25.50;81.10
5775;DHT22;2913;51.120;6.772;2023-07-13T05:41:06;25.40;81.30
5775;DHT22;2913;51.120;6.772;2023-07-13T05:43:32;24.60;82.30
5775;DHT22;2913;51.120;6.772;2023-07-13T05:45:58;23.90;84.60
5775;DHT22;2913;51.120;6.772;2023-07-13T05:48:24;23.80;85.30
5775;DHT22;2913;51.120;6.772;2023-07-13T05:50:52;24.30;85.80
5775;DHT22;2913;51.120;6.772;2023-07-13T05:53:20;23.90;86.00
5775;DHT22;2913;51.120;6.772;2023-07-13T05:55:47;24.50;85.10
5775;DHT22;2913;51.120;6.772;2023-07-13T05:58:19;24.50;85.80
5775;DHT22;2913;51.120;6.772;2023-07-13T06:00:47;24.20;85.40
5775;DHT22;2913;51.120;6.772;2023-07-13T06:03:14;24.30;86.00
5775;DHT22;2913;51.120;6.772;2023-07-13T06:05:39;24.30;86.60
5775;DHT22;2913;51.120;6.772;2023-07-13T06:08:06;23.80;86.80
5775;DHT22;2913;51.120;6.772;2023-07-13T06:10:36;23.40;88.60
5775;DHT22;2913;51.120;6.772;2023-07-13T06:13:02;23.20;89.50
5775;DHT22;2913;51.120;6.772;2023-07-13T06:15:28;23.00;90.30
5775;DHT22;2913;51.120;6.772;2023-07-13T06:17:56;22.90;90.60
5775;DHT22;2913;51.120;6.772;2023-07-13T06:20:24;22.90;90.90
5775;DHT22;2913;51.120;6.772;2023-07-13T06:22:50;23.30;91.10
5775;DHT22;2913;51.120;6.772;2023-07-13T06:25:15;22.60;90.90
5775;DHT22;2913;51.120;6.772;2023-07-13T06:27:41;22.60;91.40
5775;DHT22;2913;51.120;6.772;2023-07-13T06:30:07;22.70;91.70
5775;DHT22;2913;51.120;6.772;2023-07-13T06:32:32;22.60;92.00
5775;DHT22;2913;51.120;6.772;2023-07-13T06:34:58;23.00;92.30
5775;DHT22;2913;51.120;6.772;2023-07-13T06:37:26;23.20;91.70
5775;DHT22;2913;51.120;6.772;2023-07-13T06:39:54;23.40;91.90
5775;DHT22;2913;51.120;6.772;2023-07-13T06:42:22;22.80;91.60
5775;DHT22;2913;51.120;6.772;2023-07-13T06:44:47;22.90;92.10
5775;DHT22;2913;51.120;6.772;2023-07-13T06:47:13;23.00;92.20
5775;DHT22;2913;51.120;6.772;2023-07-13T06:49:39;22.80;92.80
5775;DHT22;2913;51.120;6.772;2023-07-13T06:52:05;22.40;92.60
5775;DHT22;2913;51.120;6.772;2023-07-13T06:54:30;22.30;93.20
5775;DHT22;2913;51.120;6.772;2023-07-13T06:57:00;22.20;93.50
5775;DHT22;2913;51.120;6.772;2023-07-13T06:59:26;22.10;94.00
5775;DHT22;2913;51.120;6.772;2023-07-13T07:01:51;21.70;95.20
5775;DHT22;2913;51.120;6.772;2023-07-13T07:04:17;21.60;95.70
5775;DHT22;2913;51.120;6.772;2023-07-13T07:06:45;21.50;97.90
5775;DHT22;2913;51.120;6.772;2023-07-13T07:09:11;21.50;98.10
5775;DHT22;2913;51.120;6.772;2023-07-13T07:11:37;21.60;98.20
5775;DHT22;2913;51.120;6.772;2023-07-13T07:14:04;21.50;98.30
5775;DHT22;2913;51.120;6.772;2023-07-13T07:16:30;21.50;98.30
5775;DHT22;2913;51.120;6.772;2023-07-13T07:18:56;21.70;98.60
5775;DHT22;2913;51.120;6.772;2023-07-13T07:21:24;21.70;99.40
5775;DHT22;2913;51.120;6.772;2023-07-13T07:23:51;21.60;98.90
5775;DHT22;2913;51.120;6.772;2023-07-13T07:26:17;21.60;99.50
5775;DHT22;2913;51.120;6.772;2023-07-13T07:28:48;21.70;99.00
5775;DHT22;2913;51.120;6.772;2023-07-13T07:31:16;21.90;99.70
5775;DHT22;2913;51.120;6.772;2023-07-13T07:33:41;21.70;98.70
5775;DHT22;2913;51.120;6.772;2023-07-13T07:36:07;21.80;99.00
5775;DHT22;2913;51.120;6.772;2023-07-13T07:38:35;21.80;99.10
5775;DHT22;2913;51.120;6.772;2023-07-13T07:41:03;21.90;99.50
5775;DHT22;2913;51.120;6.772;2023-07-13T07:43:32;21.80;99.60
5775;DHT22;2913;51.120;6.772;2023-07-13T07:46:00;21.90;99.90
5775;DHT22;2913;51.120;6.772;2023-07-13T07:48:28;21.90;99.90
5775;DHT22;2913;51.120;6.772;2023-07-13T07:50:56;21.90;99.90
5775;DHT22;2913;51.120;6.772;2023-07-13T07:53:24;22.00;99.70
5775;DHT22;2913;51.120;6.772;2023-07-13T07:55:49;22.00;99.90
5775;DHT22;2913;51.120;6.772;2023-07-13T07:58:16;22.10;99.80
5775;DHT22;2913;51.120;6.772;2023-07-13T08:00:44;22.20;99.90
5775;DHT22;2913;51.120;6.772;2023-07-13T08:03:10;22.60;99.90
5775;DHT22;2913;51.120;6.772;2023-07-13T08:05:36;22.60;99.90
5775;DHT22;2913;51.120;6.772;2023-07-13T08:08:04;22.60;98.80
5775;DHT22;2913;51.120;6.772;2023-07-13T08:10:30;22.60;98.60
5775;DHT22;2913;51.120;6.772;2023-07-13T08:12:55;22.70;99.00
5775;DHT22;2913;51.120;6.772;2023-07-13T08:15:21;22.60;98.60
5775;DHT22;2913;51.120;6.772;2023-07-13T08:17:49;22.70;98.70
5775;DHT22;2913;51.120;6.772;2023-07-13T08:20:15;22.50;98.30
5775;DHT22;2913;51.120;6.772;2023-07-13T08:22:43;22.60;98.70
5775;DHT22;2913;51.120;6.772;2023-07-13T08:25:09;22.80;99.00
5775;DHT22;2913;51.120;6.772;2023-07-13T08:27:37;22.70;98.50
5775;DHT22;2913;51.120;6.772;2023-07-13T08:30:03;22.70;98.10
5775;DHT22;2913;51.120;6.772;2023-07-13T08:32:28;22.80;98.40
5775;DHT22;2913;51.120;6.772;2023-07-13T08:34:56;23.10;97.80
5775;DHT22;2913;51.120;6.772;2023-07-13T08:37:22;23.10;97.00
5775;DHT22;2913;51.120;6.772;2023-07-13T08:39:48;22.90;96.00
5775;DHT22;2913;51.120;6.772;2023-07-13T08:47:28;23.00;96.80
5775;DHT22;2913;51.120;6.772;2023-07-13T08:49:56;23.00;96.70
5775;DHT22;2913;51.120;6.772;2023-07-13T08:52:36;23.00;97.10
5775;DHT22;2913;51.120;6.772;2023-07-13T08:55:17;23.00;96.40
5775;DHT22;2913;51.120;6.772;2023-07-13T08:57:47;23.00;96.80
5775;DHT22;2913;51.120;6.772;2023-07-13T09:00:14;23.00;96.40
5775;DHT22;2913;51.120;6.772;2023-07-13T09:02:56;22.80;96.60
5775;DHT22;2913;51.120;6.772;2023-07-13T09:05:36;22.80;96.50
5775;DHT22;2913;51.120;6.772;2023-07-13T09:08:17;22.70;96.90
5775;DHT22;2913;51.120;6.772;2023-07-13T09:11:03;23.00;97.60
5775;DHT22;2913;51.120;6.772;2023-07-13T09:16:20;22.90;97.30
5775;DHT22;2913;51.120;6.772;2023-07-13T09:18:51;23.00;96.10
5775;DHT22;2913;51.120;6.772;2023-07-13T09:21:25;23.10;96.00
5775;DHT22;2913;51.120;6.772;2023-07-13T09:23:54;23.40;96.20
5775;DHT22;2913;51.120;6.772;2023-07-13T09:26:25;23.40;94.50
5775;DHT22;2913;51.120;6.772;2023-07-13T09:29:10;23.40;94.90
5775;DHT22;2913;51.120;6.772;2023-07-13T09:31:44;23.50;94.20
5775;DHT22;2913;51.120;6.772;2023-07-13T09:34:14;23.10;94.40
5775;DHT22;2913;51.120;6.772;2023-07-13T09:36:39;23.30;94.70
5775;DHT22;2913;51.120;6.772;2023-07-13T09:44:16;23.30;93.50
5775;DHT22;2913;51.120;6.772;2023-07-13T09:46:55;23.30;93.80
5775;DHT22;2913;51.120;6.772;2023-07-13T09:49:29;23.20;93.70
5775;DHT22;2913;51.120;6.772;2023-07-13T09:52:15;23.30;93.60
5775;DHT22;2913;51.120;6.772;2023-07-13T09:54:48;23.40;93.50
5775;DHT22;2913;51.120;6.772;2023-07-13T09:57:19;23.40;93.30
5775;DHT22;2913;51.120;6.772;2023-07-13T09:59:52;23.00;92.30
5775;DHT22;2913;51.120;6.772;2023-07-13T10:02:36;23.20;92.20
5775;DHT22;2913;51.120;6.772;2023-07-13T10:05:14;23.20;92.50
5775;DHT22;2913;51.120;6.772;2023-07-13T10:07:44;23.30;92.70
5775;DHT22;2913;51.120;6.772;2023-07-13T10:10:16;23.60;92.70
5775;DHT22;2913;51.120;6.772;2023-07-13T10:12:43;23.40;91.50
5775;DHT22;2913;51.120;6.772;2023-07-13T10:15:23;23.40;91.80
5775;DHT22;2913;51.120;6.772;2023-07-13T10:17:53;23.30;91.80
5775;DHT22;2913;51.120;6.772;2023-07-13T10:20:21;23.20;91.80
5775;DHT22;2913;51.120;6.772;2023-07-13T10:23:02;23.50;92.10
5775;DHT22;2913;51.120;6.772;2023-07-13T10:25:34;23.60;91.30
5775;DHT22;2913;51.120;6.772;2023-07-13T10:30:49;23.70;91.00
5775;DHT22;2913;51.120;6.772;2023-07-13T10:33:18;24.00;91.20
5775;DHT22;2913;51.120;6.772;2023-07-13T10:35:44;24.20;91.00
5775;DHT22;2913;51.120;6.772;2023-07-13T10:38:15;24.30;91.30
5775;DHT22;2913;51.120;6.772;2023-07-13T10:41:19;24.40;90.30
5775;DHT22;2913;51.120;6.772;2023-07-13T10:43:51;24.60;90.30
5775;DHT22;2913;51.120;6.772;2023-07-13T10:46:20;24.70;89.20
5775;DHT22;2913;51.120;6.772;2023-07-13T10:49:04;24.70;88.60
5775;DHT22;2913;51.120;6.772;2023-07-13T10:51:34;24.50;87.40
5775;DHT22;2913;51.120;6.772;2023-07-13T10:54:20;24.20;87.20
5775;DHT22;2913;51.120;6.772;2023-07-13T10:59:33;23.90;88.30
5775;DHT22;2913;51.120;6.772;2023-07-13T11:02:11;24.00;89.40
5775;DHT22;2913;51.120;6.772;2023-07-13T11:04:43;24.00;88.30
5775;DHT22;2913;51.120;6.772;2023-07-13T11:09:50;23.90;89.80
5775;DHT22;2913;51.120;6.772;2023-07-13T11:17:33;23.80;90.20
5775;DHT22;2913;51.120;6.772;2023-07-13T11:25:45;24.10;89.40
5775;DHT22;2913;51.120;6.772;2023-07-13T11:30:40;24.30;89.20
5775;DHT22;2913;51.120;6.772;2023-07-13T11:35:53;24.30;88.30
5775;DHT22;2913;51.120;6.772;2023-07-13T11:38:38;23.90;84.30
5775;DHT22;2913;51.120;6.772;2023-07-13T11:41:19;24.00;85.70
5775;DHT22;2913;51.120;6.772;2023-07-13T11:43:49;24.10;85.80
5775;DHT22;2913;51.120;6.772;2023-07-13T11:46:27;24.10;85.50
5775;DHT22;2913;51.120;6.772;2023-07-13T11:48:53;24.10;86.30
5775;DHT22;2913;51.120;6.772;2023-07-13T11:51:23;24.30;86.60
5775;DHT22;2913;51.120;6.772;2023-07-13T11:53:56;24.40;87.60
5775;DHT22;2913;51.120;6.772;2023-07-13T11:56:23;24.60;85.90
5775;DHT22;2913;51.120;6.772;2023-07-13T11:58:54;24.90;86.30
5775;DHT22;2913;51.120;6.772;2023-07-13T12:01:29;25.10;83.00
5775;DHT22;2913;51.120;6.772;2023-07-13T12:04:00;25.00;82.40
5775;DHT22;2913;51.120;6.772;2023-07-13T12:06:35;25.10;83.10
5775;DHT22;2913;51.120;6.772;2023-07-13T12:09:15;25.20;82.30
5775;DHT22;2913;51.120;6.772;2023-07-13T12:11:47;25.30;81.80
5775;DHT22;2913;51.120;6.772;2023-07-13T12:14:16;25.00;81.30
5775;DHT22;2913;51.120;6.772;2023-07-13T12:16:43;25.10;81.30
5775;DHT22;2913;51.120;6.772;2023-07-13T12:19:23;24.90;81.50
5775;DHT22;2913;51.120;6.772;2023-07-13T12:21:54;25.10;80.60
5775;DHT22;2913;51.120;6.772;2023-07-13T12:24:21;25.00;81.30
5775;DHT22;2913;51.120;6.772;2023-07-13T12:27:02;25.30;79.30
5775;DHT22;2913;51.120;6.772;2023-07-13T12:29:30;25.90;78.10
5775;DHT22;2913;51.120;6.772;2023-07-13T12:31:59;25.90;78.90
5775;DHT22;2913;51.120;6.772;2023-07-13T12:34:26;26.00;77.80
5775;DHT22;2913;51.120;6.772;2023-07-13T12:39:38;26.00;76.40
5775;DHT22;2913;51.120;6.772;2023-07-13T12:47:42;26.10;75.30
5775;DHT22;2913;51.120;6.772;2023-07-13T12:50:21;26.10;75.20
5775;DHT22;2913;51.120;6.772;2023-07-13T12:52:56;25.80;75.10
5775;DHT22;2913;51.120;6.772;2023-07-13T12:55:23;25.80;74.80
5775;DHT22;2913;51.120;6.772;2023-07-13T12:57:54;25.80;75.50
5775;DHT22;2913;51.120;6.772;2023-07-13T13:00:30;26.30;72.00
5775;DHT22;2913;51.120;6.772;2023-07-13T13:03:02;26.10;72.40
5775;DHT22;2913;51.120;6.772;2023-07-13T13:05:34;26.20;72.80
5775;DHT22;2913;51.120;6.772;2023-07-13T13:08:04;26.10;72.40
5775;DHT22;2913;51.120;6.772;2023-07-13T13:10:30;26.00;72.60
5775;DHT22;2913;51.120;6.772;2023-07-13T13:12:58;26.10;73.50
5775;DHT22;2913;51.120;6.772;2023-07-13T13:15:26;26.20;72.20
5775;DHT22;2913;51.120;6.772;2023-07-13T13:17:52;26.30;73.20
5775;DHT22;2913;51.120;6.772;2023-07-13T13:20:20;26.40;72.00
5775;DHT22;2913;51.120;6.772;2023-07-13T13:22:46;26.40;71.30
5775;DHT22;2913;51.120;6.772;2023-07-13T13:25:13;26.30;72.00
5775;DHT22;2913;51.120;6.772;2023-07-13T13:27:41;26.40;72.00
5775;DHT22;2913;51.120;6.772;2023-07-13T13:30:18;26.40;71.80
5775;DHT22;2913;51.120;6.772;2023-07-13T13:32:48;26.30;71.70
5775;DHT22;2913;51.120;6.772;2023-07-13T13:35:18;26.40;73.10
5775;DHT22;2913;51.120;6.772;2023-07-13T13:37:46;26.50;71.60
5775;DHT22;2913;51.120;6.772;2023-07-13T13:40:20;26.50;72.60
5775;DHT22;2913;51.120;6.772;2023-07-13T13:42:46;26.30;71.50
5775;DHT22;2913;51.120;6.772;2023-07-13T13:45:12;26.20;71.70
5775;DHT22;2913;51.120;6.772;2023-07-13T13:47:45;26.20;72.20
5775;DHT22;2913;51.120;6.772;2023-07-13T13:50:16;26.20;71.50
5775;DHT22;2913;51.120;6.772;2023-07-13T13:52:43;26.10;71.20
5775;DHT22;2913;51.120;6.772;2023-07-13T13:57:38;26.80;68.90
5775;DHT22;2913;51.120;6.772;2023-07-13T14:00:05;26.70;69.70
5775;DHT22;2913;51.120;6.772;2023-07-13T14:02:33;26.60;69.10
5775;DHT22;2913;51.120;6.772;2023-07-13T14:05:01;26.60;68.40
5775;DHT22;2913;51.120;6.772;2023-07-13T14:07:27;26.60;67.90
5775;DHT22;2913;51.120;6.772;2023-07-13T14:09:59;26.50;67.60
5775;DHT22;2913;51.120;6.772;2023-07-13T14:12:28;26.40;67.70
5775;DHT22;2913;51.120;6.772;2023-07-13T14:14:58;26.30;68.50
5775;DHT22;2913;51.120;6.772;2023-07-13T14:17:26;26.20;68.60
5775;DHT22;2913;51.120;6.772;2023-07-13T14:19:55;26.10;69.20
5775;DHT22;2913;51.120;6.772;2023-07-13T14:22:24;26.00;69.70
5775;DHT22;2913;51.120;6.772;2023-07-13T14:24:53;25.90;69.50
5775;DHT22;2913;51.120;6.772;2023-07-13T14:27:23;26.10;68.50
5775;DHT22;2913;51.120;6.772;2023-07-13T14:29:52;26.30;67.60
5775;DHT22;2913;51.120;6.772;2023-07-13T14:32:20;26.30;68.30
5775;DHT22;2913;51.120;6.772;2023-07-13T14:34:47;26.20;69.40
5775;DHT22;2913;51.120;6.772;2023-07-13T14:37:14;26.00;69.90
5775;DHT22;2913;51.120;6.772;2023-07-13T14:39:43;25.90;70.80
5775;DHT22;2913;51.120;6.772;2023-07-13T14:42:11;25.50;71.10
5775;DHT22;2913;51.120;6.772;2023-07-13T14:44:41;25.50;71.10
5775;DHT22;2913;51.120;6.772;2023-07-13T14:47:08;25.50;71.40
5775;DHT22;2913;51.120;6.772;2023-07-13T14:49:39;25.40;70.90
5775;DHT22;2913;51.120;6.772;2023-07-13T14:52:21;25.30;71.40
5775;DHT22;2913;51.120;6.772;2023-07-13T14:54:48;25.30;71.30
5775;DHT22;2913;51.120;6.772;2023-07-13T14:57:16;25.20;71.80
5775;DHT22;2913;51.120;6.772;2023-07-13T14:59:45;25.10;73.30
5775;DHT22;2913;51.120;6.772;2023-07-13T15:02:25;24.90;72.60
5775;DHT22;2913;51.120;6.772;2023-07-13T15:04:52;24.70;75.60
5775;DHT22;2913;51.120;6.772;2023-07-13T15:07:20;24.70;76.40
5775;DHT22;2913;51.120;6.772;2023-07-13T15:09:48;24.50;79.10
5775;DHT22;2913;51.120;6.772;2023-07-13T15:12:14;24.00;81.40
5775;DHT22;2913;51.120;6.772;2023-07-13T15:14:40;23.90;82.10
5775;DHT22;2913;51.120;6.772;2023-07-13T15:17:27;23.60;86.10
5775;DHT22;2913;51.120;6.772;2023-07-13T15:19:55;23.60;86.90
5775;DHT22;2913;51.120;6.772;2023-07-13T15:22:24;23.50;86.90
5775;DHT22;2913;51.120;6.772;2023-07-13T15:24:52;23.30;87.40
5775;DHT22;2913;51.120;6.772;2023-07-13T15:27:17;23.30;87.50
5775;DHT22;2913;51.120;6.772;2023-07-13T15:29:43;23.20;88.10
5775;DHT22;2913;51.120;6.772;2023-07-13T15:32:13;23.10;88.50
5775;DHT22;2913;51.120;6.772;2023-07-13T15:34:39;23.10;87.80
5775;DHT22;2913;51.120;6.772;2023-07-13T15:37:16;23.10;88.30
5775;DHT22;2913;51.120;6.772;2023-07-13T15:39:43;23.10;88.70
5775;DHT22;2913;51.120;6.772;2023-07-13T15:42:20;23.10;88.60
5775;DHT22;2913;51.120;6.772;2023-07-13T15:44:46;23.00;88.40
5775;DHT22;2913;51.120;6.772;2023-07-13T15:47:13;23.00;88.50
5775;DHT22;2913;51.120;6.772;2023-07-13T15:49:40;22.90;88.40
5775;DHT22;2913;51.120;6.772;2023-07-13T15:52:18;22.90;89.00
5775;DHT22;2913;51.120;6.772;2023-07-13T15:54:50;22.90;89.30
5775;DHT22;2913;51.120;6.772;2023-07-13T15:57:17;22.90;90.00
5775;DHT22;2913;51.120;6.772;2023-07-13T15:59:45;22.90;90.00
5775;DHT22;2913;51.120;6.772;2023-07-13T16:02:19;22.90;90.40
5775;DHT22;2913;51.120;6.772;2023-07-13T16:04:46;22.90;90.20
5775;DHT22;2913;51.120;6.772;2023-07-13T16:07:15;22.70;87.70
5775;DHT22;2913;51.120;6.772;2023-07-13T16:09:45;22.60;88.30
5775;DHT22;2913;51.120;6.772;2023-07-13T16:12:12;22.80;88.80
5775;DHT22;2913;51.120;6.772;2023-07-13T16:14:39;22.80;88.60
5775;DHT22;2913;51.120;6.772;2023-07-13T16:17:08;22.80;88.20
5775;DHT22;2913;51.120;6.772;2023-07-13T16:19:34;22.80;88.00
5775;DHT22;2913;51.120;6.772;2023-07-13T16:22:00;22.80;86.50
5775;DHT22;2913;51.120;6.772;2023-07-13T16:24:28;22.80;86.80
5775;DHT22;2913;51.120;6.772;2023-07-13T16:26:59;22.70;85.10
5775;DHT22;2913;51.120;6.772;2023-07-13T16:29:29;22.70;85.90
5775;DHT22;2913;51.120;6.772;2023-07-13T16:34:34;22.70;85.80
5775;DHT22;2913;51.120;6.772;2023-07-13T16:37:01;22.70;86.40
5775;DHT22;2913;51.120;6.772;2023-07-13T16:39:28;22.70;85.40
5775;DHT22;2913;51.120;6.772;2023-07-13T16:41:57;22.70;86.00
5775;DHT22;2913;51.120;6.772;2023-07-13T16:44:29;22.60;84.20
5775;DHT22;2913;51.120;6.772;2023-07-13T16:46:54;22.60;85.00
5775;DHT22;2913;51.120;6.772;2023-07-13T16:49:32;22.50;85.60
5775;DHT22;2913;51.120;6.772;2023-07-13T16:52:03;22.40;85.70
5775;DHT22;2913;51.120;6.772;2023-07-13T16:54:34;22.50;86.40
5775;DHT22;2913;51.120;6.772;2023-07-13T16:57:06;22.40;86.00
5775;DHT22;2913;51.120;6.772;2023-07-13T16:59:37;22.40;86.70
5775;DHT22;2913;51.120;6.772;2023-07-13T17:02:28;22.40;86.40
5775;DHT22;2913;51.120;6.772;2023-07-13T17:04:55;22.30;86.00
5775;DHT22;2913;51.120;6.772;2023-07-13T17:07:23;22.40;86.40
5775;DHT22;2913;51.120;6.772;2023-07-13T17:09:54;22.50;86.40
5775;DHT22;2913;51.120;6.772;2023-07-13T17:12:20;22.40;86.10